Historique des mesures à Cassis (13260), France
Quotidien Résumé Aout 17, 2017 Unités:  Métrique    US   Métrique/US
« Précédent (Jour)
Suivant (Jour) »
Quotidien Hebdomadaire Mensuel Annuel Période au choix
  Maximum: Minimum: Moyenne:
Température: TemperatureC °C 22.7 °C 25.9 °C
Point de rosée: DewpointC °C 14.9 °C 15.8 °C
Humidité: Humidity % 42 % 51 %
Vitesse du vent: 0 km/h 0 km/h 3.4 km/h
Rafales: 0 km/h - -
Vent:- - ESE
Pression: PressurehPa hPa 1012.1 hPa -
Précipitations: 0.0 mm    
Historical Graphs
 
 
Mesures pour : Aout 17, 2017
Heure Temperature Point de rosée Pression Vent Vitesse du vent Rafales Humidité Pluie (par heure) Conditions
TemperatureC °C DewpointC °C PressurehPa hPa Calm     Humidity % HourlyPrecipMM mm SoftwareType W/m2
00:11 23.4 °C 14.9 °C 1013.4 hPa Calm     59 % 0.0 mm open2300-1.11 W/m2
01:11 23.1 °C 15.1 °C 1013.4 hPa Calm   9.8 km/h 61 % 0.0 mm open2300-1.11 W/m2
02:11 23.3 °C 15.3 °C 1013.1 hPa East 6.9 km/h 6.9 km/h 61 % 0.0 mm open2300-1.11 W/m2
03:11 23.3 °C 15.6 °C 1012.8 hPa North 1.8 km/h 8 km/h 62 % 0.0 mm open2300-1.11 W/m2
04:11 22.9 °C 15.7 °C 1012.8 hPa North 4.7 km/h 6.9 km/h 64 % 0.0 mm open2300-1.11 W/m2
06:11 22.7 °C 15.5 °C 1012.1 hPa Calm   2.3 km/h 64 % 0.0 mm open2300-1.11 W/m2
08:11 25.8 °C 15.8 °C 1012.8 hPa NNE 2.9 km/h 11.6 km/h 54 % 0.0 mm open2300-1.11 W/m2
09:11 26.4 °C 15.7 °C 1013.1 hPa Calm   8 km/h 52 % 0.0 mm open2300-1.11 W/m2
10:11 25.9 °C 16.4 °C 1013.8 hPa South 8 km/h 8 km/h 56 % 0.0 mm open2300-1.11 W/m2
11:11 28.3 °C 18.7 °C 1014.1 hPa Calm   5.1 km/h 56 % 0.0 mm open2300-1.11 W/m2
12:11 30.4 °C 19.2 °C 1014.1 hPa ESE 8 km/h 15 km/h 51 % 0.0 mm open2300-1.11 W/m2
13:11 30.8 °C 19.2 °C 1013.8 hPa SSE 4.7 km/h 14.5 km/h 50 % 0.0 mm open2300-1.11 W/m2
14:11 31.3 °C 19.7 °C 1013.4 hPa SE 9.3 km/h 9.3 km/h 50 % 0.0 mm open2300-1.11 W/m2
15:11 30.9 °C 18.6 °C 1013.4 hPa SE 6.4 km/h 10.9 km/h 48 % 0.0 mm open2300-1.11 W/m2
16:11 30.8 °C 17.8 °C 1013.1 hPa SSE 5.1 km/h 5.6 km/h 46 % 0.0 mm open2300-1.11 W/m2
17:11 30.5 °C 16.2 °C 1012.8 hPa SSE 10.3 km/h 10.3 km/h 42 % 0.0 mm open2300-1.11 W/m2
18:11 30.0 °C 16.4 °C 1012.8 hPa Calm   6.4 km/h 44 % 0.0 mm open2300-1.11 W/m2
19:11 29.0 °C 15.5 °C 1012.4 hPa SSE 2.9 km/h 3.4 km/h 44 % 0.0 mm open2300-1.11 W/m2
20:11 28.4 °C 15.9 °C 1012.4 hPa SE 2.9 km/h 2.9 km/h 47 % 0.0 mm open2300-1.11 W/m2
21:11 27.2 °C 15.6 °C 1012.8 hPa Calm     49 % 0.0 mm open2300-1.11 W/m2
22:11 26.5 °C 15.6 °C 1013.1 hPa Calm   4.2 km/h 51 % 0.0 mm open2300-1.11 W/m2
23:11 25.5 °C 15.8 °C 1012.8 hPa ENE 2.3 km/h 7.6 km/h 55 % 0.0 mm open2300-1.11 W/m2
Observations météo à CASSIS
WU-History script by Weather Underground - 1 mb